Time;durP1;ratioP1;P1;durP2;ratioP2;P2;SDS_P1;SDS_P2;PMS_P1;PMS_P2;Temp;Humidity;BMP_temperature;BMP_pressure;BME280_temperature;BME280_humidity;BME280_pressure;Samples;Min_cycle;Max_cycle;Signal;HPM_P1;HPM_P2
2024/02/15 00:01:33;;;;;;;1999.90;999.90;;;;;;;12.68;100.00;101605.22;10220783;29;20499;-66
2024/02/15 00:06:36;;;;;;;1999.90;999.90;;;;;;;12.60;100.00;101598.59;10220059;29;20057;-66
2024/02/15 00:11:39;;;;;;;1999.90;999.90;;;;;;;12.94;100.00;101595.94;10220955;29;20076;-66
2024/02/15 00:16:41;;;;;;;1999.90;999.90;;;;;;;12.73;100.00;101593.53;10220856;29;20086;-66
2024/02/15 00:21:44;;;;;;;1999.90;999.90;;;;;;;12.58;100.00;101597.00;10220149;29;20079;-66
2024/02/15 00:26:47;;;;;;;1999.90;999.90;;;;;;;12.68;100.00;101598.19;10219852;29;20404;-66
2024/02/15 00:31:50;;;;;;;1999.90;999.90;;;;;;;12.76;100.00;101600.38;10220206;29;20079;-66
2024/02/15 00:36:53;;;;;;;1999.90;999.90;;;;;;;12.76;100.00;101592.50;10219408;29;20467;-66
2024/02/15 00:41:55;;;;;;;1999.90;999.90;;;;;;;12.51;100.00;101590.34;10219090;29;20066;-66
2024/02/15 00:46:58;;;;;;;1999.90;999.90;;;;;;;12.77;100.00;101586.34;10219183;29;20098;-66
2024/02/15 00:52:00;;;;;;;1999.90;999.90;;;;;;;12.57;100.00;101590.03;10218848;29;20043;-66
2024/02/15 00:57:03;;;;;;;1999.90;999.90;;;;;;;12.75;100.00;101591.66;10217551;29;20058;-67
2024/02/15 01:02:05;;;;;;;1999.90;999.90;;;;;;;12.79;100.00;101592.34;10217372;29;20484;-66
2024/02/15 01:07:08;;;;;;;1999.90;999.90;;;;;;;12.64;100.00;101592.25;10218926;29;20047;-66
2024/02/15 01:12:10;;;;;;;1999.90;999.90;;;;;;;12.79;100.00;101595.84;10218686;29;20052;-66
2024/02/15 01:17:13;;;;;;;1999.90;999.90;;;;;;;12.77;100.00;101595.06;10217909;29;20407;-66
2024/02/15 01:22:15;;;;;;;1999.90;999.90;;;;;;;12.67;100.00;101587.75;10217203;29;20048;-66
2024/02/15 01:27:18;;;;;;;1999.90;999.90;;;;;;;12.72;100.00;101591.81;10216334;29;20481;-66
2024/02/15 01:32:20;;;;;;;1999.90;999.90;;;;;;;12.64;100.00;101584.38;10217909;29;20057;-66
2024/02/15 01:37:23;;;;;;;1999.90;999.90;;;;;;;12.64;100.00;101581.75;10216420;29;20062;-66
2024/02/15 01:42:25;;;;;;;1999.90;999.90;;;;;;;12.51;100.00;101571.94;10217587;29;20126;-66
2024/02/15 01:47:28;;;;;;;1999.90;999.90;;;;;;;12.55;100.00;101565.63;10216775;29;20416;-67
2024/02/15 01:52:31;;;;;;;1999.90;999.90;;;;;;;12.55;100.00;101566.47;10217201;29;20086;-67
2024/02/15 01:57:35;;;;;;;1999.90;999.90;;;;;;;12.37;100.00;101565.69;10216273;29;20059;-66
2024/02/15 02:02:39;;;;;;;1999.90;999.90;;;;;;;12.26;100.00;101560.13;10215234;29;20051;-67
2024/02/15 02:07:42;;;;;;;1999.90;999.90;;;;;;;12.55;100.00;101558.59;10215501;29;20052;-67
2024/02/15 02:12:44;;;;;;;1999.90;999.90;;;;;;;12.53;100.00;101555.19;10214613;29;20422;-66
2024/02/15 02:17:53;;;;;;;1999.90;999.90;;;;;;;12.56;100.00;101552.41;10216284;29;20094;-67
2024/02/15 02:23:14;;;;;;;1999.90;999.90;;;;;;;12.56;100.00;101533.19;10216149;29;20051;-67
2024/02/15 02:28:16;;;;;;;1999.90;999.90;;;;;;;12.59;100.00;101539.13;10215376;29;20135;-67
2024/02/15 02:33:21;;;;;;;1999.90;999.90;;;;;;;12.43;100.00;101535.59;10215808;29;20052;-66
2024/02/15 02:38:26;;;;;;;1999.90;999.90;;;;;;;12.37;100.00;101535.94;10215090;29;20063;-67
2024/02/15 02:43:28;;;;;;;1999.90;999.90;;;;;;;12.41;100.00;101537.47;10215399;29;20056;-67
2024/02/15 02:48:31;;;;;;;1999.90;999.90;;;;;;;12.48;100.00;101527.50;10215253;29;20048;-67
2024/02/15 02:53:34;;;;;;;1999.90;999.90;;;;;;;12.37;100.00;101528.91;10222568;23;20052;-66
2024/02/15 02:58:36;;;;;;;1999.90;999.90;;;;;;;12.11;100.00;101525.03;10214493;29;20060;-67
2024/02/15 03:03:39;;;;;;;1999.90;999.90;;;;;;;12.35;100.00;101514.16;10214993;29;20052;-67
2024/02/15 03:08:42;;;;;;;1999.90;999.90;;;;;;;12.27;100.00;101522.44;10212891;29;20505;-66
2024/02/15 03:13:44;;;;;;;1999.90;999.90;;;;;;;12.20;100.00;101521.06;10214161;29;20455;-66
2024/02/15 03:18:48;;;;;;;1999.90;999.90;;;;;;;12.49;100.00;101521.28;10214722;29;20099;-67
2024/02/15 03:23:51;;;;;;;1999.90;999.90;;;;;;;12.21;100.00;101521.00;10213481;29;20135;-67
2024/02/15 03:28:54;;;;;;;1999.90;999.90;;;;;;;11.98;100.00;101509.06;10213755;29;20403;-67
2024/02/15 03:33:57;;;;;;;1999.90;999.90;;;;;;;12.37;100.00;101510.53;10214400;29;20060;-66
2024/02/15 03:39:00;;;;;;;1999.90;999.90;;;;;;;12.42;100.00;101512.88;10213222;29;20054;-66
2024/02/15 03:44:03;;;;;;;1999.90;999.90;;;;;;;12.59;100.00;101510.22;10214238;29;20103;-66
2024/02/15 03:49:07;;;;;;;1999.90;999.90;;;;;;;12.35;100.00;101498.41;10213981;29;20058;-66
2024/02/15 03:54:10;;;;;;;1999.90;999.90;;;;;;;12.53;100.00;101513.16;10213267;29;20485;-66
2024/02/15 03:59:13;;;;;;;1999.90;999.90;;;;;;;12.27;100.00;101510.19;10213852;29;20056;-66
2024/02/15 04:04:15;;;;;;;1999.90;999.90;;;;;;;12.32;100.00;101509.06;10213840;29;20098;-67
2024/02/15 04:09:18;;;;;;;1999.90;999.90;;;;;;;12.32;100.00;101511.69;10213599;29;20048;-66
2024/02/15 04:14:21;;;;;;;1999.90;999.90;;;;;;;12.34;100.00;101507.19;10212531;29;20047;-67
2024/02/15 04:19:24;;;;;;;1999.90;999.90;;;;;;;12.33;100.00;101503.72;10215428;29;20127;-66
2024/02/15 04:24:27;;;;;;;1999.90;999.90;;;;;;;12.32;100.00;101499.41;10220615;29;20051;-66
2024/02/15 04:29:29;;;;;;;1999.90;999.90;;;;;;;12.28;100.00;101495.25;10220286;29;20054;-66
2024/02/15 04:34:33;;;;;;;1999.90;999.90;;;;;;;12.33;100.00;101484.50;10219661;29;20455;-67
2024/02/15 04:39:36;;;;;;;1999.90;999.90;;;;;;;12.34;100.00;101481.81;10220021;29;20048;-67
2024/02/15 04:44:39;;;;;;;1999.90;999.90;;;;;;;12.36;100.00;101486.97;10219955;29;20127;-66
2024/02/15 04:49:42;;;;;;;1999.90;999.90;;;;;;;12.40;100.00;101488.50;10217912;29;20103;-67
2024/02/15 04:54:45;;;;;;;1999.90;999.90;;;;;;;12.53;100.00;101470.31;10218763;29;20063;-67
2024/02/15 04:59:48;;;;;;;1999.90;999.90;;;;;;;12.48;100.00;101467.91;10218183;29;20123;-66
2024/02/15 05:04:56;;;;;;;1999.90;999.90;;;;;;;12.40;100.00;101483.25;10219214;29;20062;-67
2024/02/15 05:09:59;;;;;;;1999.90;999.90;;;;;;;12.39;100.00;101479.78;10218285;29;20052;-66
2024/02/15 05:15:01;;;;;;;1999.90;999.90;;;;;;;12.34;100.00;101476.56;10218915;29;20051;-67
2024/02/15 05:20:10;;;;;;;1999.90;999.90;;;;;;;12.27;100.00;101465.53;10218555;29;20055;-67
2024/02/15 05:25:13;;;;;;;1999.90;999.90;;;;;;;12.31;100.00;101475.88;10217935;29;20499;-66
2024/02/15 05:30:15;;;;;;;1999.90;999.90;;;;;;;12.47;100.00;101475.88;10216349;29;20559;-67
2024/02/15 05:35:18;;;;;;;1999.90;999.90;;;;;;;12.35;100.00;101462.47;10217948;29;20055;-67
2024/02/15 05:40:20;;;;;;;1999.90;999.90;;;;;;;12.34;100.00;101473.94;10216023;29;20123;-67
2024/02/15 05:45:26;;;;;;;1999.90;999.90;;;;;;;12.45;100.00;101478.59;10217595;29;20083;-67
2024/02/15 05:50:30;;;;;;;1999.90;999.90;;;;;;;12.37;100.00;101467.66;10217326;29;20044;-67
2024/02/15 05:55:34;;;;;;;1999.90;999.90;;;;;;;12.51;100.00;101474.78;10216562;29;20067;-67
2024/02/15 06:00:38;;;;;;;1999.90;999.90;;;;;;;12.69;100.00;101472.91;10216370;29;20410;-67
2024/02/15 06:05:41;;;;;;;1999.90;999.90;;;;;;;12.54;100.00;101471.97;10216150;29;20058;-67
2024/02/15 06:10:44;;;;;;;1999.90;999.90;;;;;;;12.57;100.00;101453.44;10215387;29;20051;-67
2024/02/15 06:15:52;;;;;;;1999.90;999.90;;;;;;;12.06;100.00;101425.53;10216461;29;20052;-67
2024/02/15 06:20:57;;;;;;;1999.90;999.90;;;;;;;12.00;100.00;101388.25;10214552;29;20427;-68
2024/02/15 06:26:02;;;;;;;1999.90;999.90;;;;;;;11.76;100.00;101317.78;10215524;29;20519;-67
2024/02/15 06:41:46;;;;;;;1999.90;999.90;;;;;;;12.22;100.00;101422.94;10215281;29;20044;-67
2024/02/15 06:46:49;;;;;;;1999.90;999.90;;;;;;;12.42;100.00;101436.72;10214314;29;20047;-67
2024/02/15 06:51:52;;;;;;;1999.90;999.90;;;;;;;12.23;100.00;101442.16;10215251;29;20054;-67
2024/02/15 06:56:54;;;;;;;1999.90;999.90;;;;;;;12.48;100.00;101446.06;10213413;29;20090;-67
2024/02/15 07:02:00;;;;;;;1999.90;999.90;;;;;;;12.23;100.00;101437.75;10215026;29;20047;-67
2024/02/15 07:07:03;;;;;;;1999.90;999.90;;;;;;;12.21;100.00;101459.78;10213775;29;20055;-67
2024/02/15 07:12:06;;;;;;;1999.90;999.90;;;;;;;12.15;100.00;101437.31;10214789;29;20047;-67
2024/02/15 07:17:08;;;;;;;1999.90;999.90;;;;;;;12.17;100.00;101403.97;10214730;29;20056;-67
2024/02/15 07:22:11;;;;;;;1999.90;999.90;;;;;;;12.18;100.00;101382.00;10214659;29;20047;-67
2024/02/15 07:27:13;;;;;;;1999.90;999.90;;;;;;;12.00;100.00;101327.91;10213924;29;20073;-67
2024/02/15 07:32:17;;;;;;;1999.90;999.90;;;;;;;12.10;100.00;101386.84;10214450;29;20062;-67
2024/02/15 07:37:19;;;;;;;1999.90;999.90;;;;;;;12.07;100.00;101423.78;10214385;29;20082;-67
2024/02/15 07:42:25;;;;;;;1999.90;999.90;;;;;;;12.38;100.00;101448.34;10214380;29;20043;-67
2024/02/15 07:47:29;;;;;;;1999.90;999.90;;;;;;;12.47;100.00;101447.00;10214216;29;20051;-67
2024/02/15 07:52:34;;;;;;;1999.90;999.90;;;;;;;12.32;100.00;101432.91;10213307;29;20526;-67
2024/02/15 07:57:36;;;;;;;1999.90;999.90;;;;;;;12.57;100.00;101437.66;10220422;29;20564;-67
2024/02/15 08:02:40;;;;;;;1999.90;999.90;;;;;;;12.39;100.00;101444.78;10221506;29;20093;-67
2024/02/15 08:07:44;;;;;;;1999.90;999.90;;;;;;;12.43;100.00;101438.44;10221354;29;20106;-67
2024/02/15 08:12:52;;;;;;;1999.90;999.90;;;;;;;12.43;100.00;101435.81;10219920;29;20144;-67
2024/02/15 08:17:55;;;;;;;1999.90;999.90;;;;;;;12.57;100.00;101435.03;10220966;29;20062;-67
2024/02/15 08:22:59;;;;;;;1999.90;999.90;;;;;;;12.67;100.00;101432.75;10232023;29;20479;-67
2024/02/15 08:28:05;;;;;;;1999.90;999.90;;;;;;;12.61;100.00;101426.06;10181109;29;20056;-67
2024/02/15 08:33:10;;;;;;;1999.90;999.90;;;;;;;12.57;100.00;101435.03;10181076;29;20083;-67
2024/02/15 08:38:13;;;;;;;1999.90;999.90;;;;;;;12.72;100.00;101439.44;10198528;29;20058;-67
2024/02/15 08:43:15;;;;;;;1999.90;999.90;;;;;;;12.49;100.00;101442.50;10218254;29;20479;-67
2024/02/15 08:48:18;;;;;;;1999.90;999.90;;;;;;;12.67;100.00;101432.75;10218605;29;20047;-66
2024/02/15 08:53:21;;;;;;;1999.90;999.90;;;;;;;12.69;100.00;101439.59;10219246;29;20070;-67
2024/02/15 08:58:23;;;;;;;1999.90;999.90;;;;;;;12.76;100.00;101427.84;10218839;29;20062;-67
2024/02/15 09:03:26;;;;;;;1999.90;999.90;;;;;;;12.67;100.00;101425.72;10218643;29;20403;-67
2024/02/15 09:08:29;;;;;;;1999.90;999.90;;;;;;;12.54;100.00;101424.69;10218698;29;20056;-67
2024/02/15 09:13:33;;;;;;;1999.90;999.90;;;;;;;12.45;100.00;101428.69;10218178;29;20407;-67
2024/02/15 09:18:37;;;;;;;1999.90;999.90;;;;;;;12.76;100.00;101433.09;10218586;29;20051;-67
2024/02/15 09:23:40;;;;;;;1999.90;999.90;;;;;;;12.60;100.00;101432.25;10218603;29;20079;-67
2024/02/15 09:28:42;;;;;;;1999.90;999.90;;;;;;;12.50;100.00;101431.06;10218246;29;20085;-66
2024/02/15 09:33:45;;;;;;;1999.90;999.90;;;;;;;12.52;100.00;101440.53;10217921;29;20086;-67
2024/02/15 09:38:48;;;;;;;1999.90;999.90;;;;;;;12.62;100.00;101425.13;10216125;29;20499;-67
2024/02/15 09:43:51;;;;;;;1999.90;999.90;;;;;;;12.87;100.00;101429.00;10217723;29;20108;-67
2024/02/15 09:48:59;;;;;;;1999.90;999.90;;;;;;;12.95;100.00;101430.25;10217488;29;20111;-67
2024/02/15 09:54:04;;;;;;;1999.90;999.90;;;;;;;12.74;100.00;101420.97;10216844;29;20087;-67
2024/02/15 09:59:07;;;;;;;1999.90;999.90;;;;;;;12.83;100.00;101425.72;10217030;29;20127;-67
2024/02/15 10:04:12;;;;;;;1999.90;999.90;;;;;;;12.95;100.00;101421.53;10216300;29;20483;-67
2024/02/15 10:09:28;;;;;;;1999.90;999.90;;;;;;;12.84;100.00;101419.50;10216119;29;20467;-68
2024/02/15 10:14:31;;;;;;;1999.90;999.90;;;;;;;12.78;100.00;101415.44;10214773;29;20118;-68
2024/02/15 10:19:34;;;;;;;1999.90;999.90;;;;;;;13.06;100.00;101424.38;10215069;29;20055;-68
2024/02/15 10:24:39;;;;;;;1999.90;999.90;;;;;;;12.98;100.00;101422.19;10215561;29;20060;-68
2024/02/15 10:29:42;;;;;;;1999.90;999.90;;;;;;;12.86;100.00;101415.03;10214831;29;20083;-66
2024/02/15 10:34:45;;;;;;;1999.90;999.90;;;;;;;12.86;100.00;101420.28;10215315;29;20411;-66
2024/02/15 10:40:08;;;;;;;1999.90;999.90;;;;;;;13.28;100.00;101409.97;10215891;29;20054;-68
2024/02/15 10:45:11;;;;;;;1999.90;999.90;;;;;;;12.89;100.00;101404.31;10214938;29;20058;-66
2024/02/15 10:50:16;;;;;;;1999.90;999.90;;;;;;;13.27;100.00;101400.41;10214184;29;20055;-67
2024/02/15 10:55:29;;;;;;;1999.90;999.90;;;;;;;13.39;100.00;101402.34;10214625;29;20059;-67
2024/02/15 11:00:37;;;;;;;1999.90;999.90;;;;;;;13.06;100.00;101400.72;10213965;29;20043;-67
2024/02/15 11:05:40;;;;;;;1999.90;999.90;;;;;;;13.34;100.00;101397.34;10213951;29;20103;-67
2024/02/15 11:10:43;;;;;;;1999.90;999.90;;;;;;;13.27;100.00;101400.41;10213028;29;20051;-67
2024/02/15 11:15:49;;;;;;;1999.90;999.90;;;;;;;13.58;100.00;101404.69;10214988;29;20051;-68
2024/02/15 11:20:53;;;;;;;1999.90;999.90;;;;;;;13.62;100.00;101385.16;10214741;29;20068;-67
2024/02/15 11:25:59;;;;;;;1999.90;999.90;;;;;;;13.50;100.00;101380.63;10214630;29;20056;-67
2024/02/15 11:31:03;;;;;;;1999.90;999.90;;;;;;;13.48;100.00;101370.22;10220948;29;20055;-66
2024/02/15 11:36:11;;;;;;;1999.90;999.90;;;;;;;13.20;100.00;101368.38;10221348;29;20062;-67
2024/02/15 11:41:18;;;;;;;1999.90;999.90;;;;;;;13.40;100.00;101358.47;10221176;29;20048;-67
2024/02/15 11:46:21;;;;;;;1999.90;999.90;;;;;;;13.70;100.00;101353.09;10220450;29;20487;-67
2024/02/15 11:51:30;;;;;;;1999.90;999.90;;;;;;;13.73;100.00;101345.03;10220755;29;20055;-67
2024/02/15 11:56:51;;;;;;;1999.90;999.90;;;;;;;14.44;100.00;101335.28;10221055;29;20138;-67
2024/02/15 12:23:41;;;;;;;1999.90;999.90;;;;;;;14.50;100.00;101303.28;10220793;29;20044;-67
2024/02/15 12:28:43;;;;;;;1999.90;999.90;;;;;;;14.40;100.00;101312.72;10220022;29;20491;-67
2024/02/15 12:34:13;;;;;;;1999.90;999.90;;;;;;;14.18;100.00;101303.56;10220377;29;20052;-68
2024/02/15 12:39:25;;;;;;;1999.90;999.90;;;;;;;14.12;100.00;101285.53;10218428;29;20056;-67
2024/02/15 12:44:32;;;;;;;;;;;;;;;13.92;100.00;101274.50;10220407;29;20044;-66
2024/02/15 12:49:34;;;;;;;1999.90;999.90;;;;;;;14.31;100.00;101267.59;10218697;29;20009;-66
2024/02/15 12:54:39;;;;;;;1999.90;999.90;;;;;;;14.26;100.00;101269.69;10218719;29;20062;-66
2024/02/15 12:59:42;;;;;;;1999.90;999.90;;;;;;;14.21;100.00;101260.41;10218813;29;20538;-67
2024/02/15 13:04:45;;;;;;;1999.90;999.90;;;;;;;14.27;100.00;101257.38;10219275;29;20139;-67
2024/02/15 13:09:48;;;;;;;1999.90;999.90;;;;;;;14.52;100.00;101259.22;10218403;29;20055;-67
2024/02/15 13:14:54;;;;;;;1999.90;999.90;;;;;;;14.55;100.00;101250.28;10218936;29;20047;-67
2024/02/15 13:20:03;;;;;;;1999.90;999.90;;;;;;;14.66;100.00;101237.25;10216878;29;20055;-67
2024/02/15 13:25:08;;;;;;;1999.90;999.90;;;;;;;14.65;100.00;101230.28;10217921;29;20138;-67
2024/02/15 13:30:11;;;;;;;1999.90;999.90;;;;;;;14.95;100.00;101224.72;10216407;29;20563;-67
2024/02/15 13:35:13;;;;;;;1999.90;999.90;;;;;;;15.33;100.00;101222.97;10218134;29;20054;-67
2024/02/15 13:40:16;;;;;;;1999.90;999.90;;;;;;;15.42;100.00;101207.34;10217274;29;20087;-67
2024/02/15 13:45:30;;;;;;;1999.90;999.90;;;;;;;15.44;100.00;101203.75;10200775;29;20096;-68
2024/02/15 13:50:32;;;;;;;1999.90;999.90;;;;;;;15.44;100.00;101196.69;10216936;29;20135;-67
2024/02/15 13:55:37;;;;;;;1999.90;999.90;;;;;;;15.72;100.00;101184.97;10215062;29;20087;-67
2024/02/15 14:00:42;;;;;;;1999.90;999.90;;;;;;;15.95;100.00;101175.41;10215317;29;20138;-67
2024/02/15 14:05:47;;;;;;;1999.90;999.90;;;;;;;16.01;100.00;101176.75;10215815;29;20056;-67
2024/02/15 14:10:50;;;;;;;1999.90;999.90;;;;;;;16.21;100.00;101164.69;10214997;29;20051;-67
2024/02/15 14:15:52;;;;;;;1999.90;999.90;;;;;;;16.89;100.00;101165.66;10215922;29;20051;-67
2024/02/15 14:20:54;;;;;;;1999.90;999.90;;;;;;;16.75;97.44;101152.66;10216401;29;20142;-67
2024/02/15 14:26:00;;;;;;;1999.90;999.90;;;;;;;16.85;98.29;101148.34;10215572;29;20487;-67
2024/02/15 14:36:24;;;;;;;1999.90;999.90;;;;;;;16.37;98.57;101130.00;10215893;29;20059;-67
2024/02/15 14:41:28;;;;;;;1999.90;999.90;;;;;;;16.22;100.00;101131.19;10215686;29;20487;-67
2024/02/15 14:46:35;;;;;;;1999.90;999.90;;;;;;;16.14;100.00;101126.50;10215582;29;20056;-67
2024/02/15 14:51:39;;;;;;;1999.90;999.90;;;;;;;16.75;100.00;101126.19;10215159;29;20143;-67
2024/02/15 14:56:42;;;;;;;1999.90;999.90;;;;;;;16.47;100.00;101124.84;10214479;29;20110;-67
2024/02/15 15:01:44;;;;;;;1999.90;999.90;;;;;;;16.23;100.00;101131.06;10215155;29;20059;-66
2024/02/15 15:17:22;;;;;;;1999.90;999.90;;;;;;;15.76;100.00;101112.53;10136684;29;20048;-65
2024/02/15 15:22:25;;;;;;;1999.90;999.90;;;;;;;15.70;100.00;101110.34;10135769;29;20500;-65
2024/02/15 15:27:28;;;;;;;1999.90;999.90;;;;;;;15.58;100.00;101108.59;10135685;29;20052;-66
2024/02/15 15:32:30;;;;;;;1999.90;999.90;;;;;;;15.71;100.00;101100.63;10136104;29;20076;-65
2024/02/15 15:37:33;;;;;;;1999.90;999.90;;;;;;;15.86;98.83;101107.44;10135552;29;20057;-65
2024/02/15 15:42:36;;;;;;;1999.90;999.90;;;;;;;15.66;99.91;101098.31;10136023;29;20048;-66
2024/02/15 15:47:39;;;;;;;1999.90;999.90;;;;;;;15.86;94.67;101103.94;10134775;29;20053;-66
2024/02/15 15:52:44;;;;;;;1999.90;999.90;;;;;;;15.63;100.00;101101.19;10135201;29;20053;-66
2024/02/15 15:57:46;;;;;;;1999.90;999.90;;;;;;;15.64;100.00;101089.69;10133848;29;20508;-66
2024/02/15 16:02:51;;;;;;;1999.90;999.90;;;;;;;15.65;99.32;101088.72;10135667;29;20044;-66
2024/02/15 16:07:53;;;;;;;1999.90;999.90;;;;;;;15.47;95.22;101083.00;10134190;29;20116;-65
2024/02/15 16:12:59;;;;;;;1999.90;999.90;;;;;;;15.49;97.40;101077.63;10134782;29;20055;-66
2024/02/15 16:18:02;;;;;;;1999.90;999.90;;;;;;;15.19;97.62;101071.81;10140564;29;20496;-65
2024/02/15 16:23:05;;;;;;;1999.90;999.90;;;;;;;15.03;100.00;101066.81;10140648;29;20081;-66
2024/02/15 16:28:08;;;;;;;1999.90;999.90;;;;;;;15.12;100.00;101056.56;10142285;29;20098;-66
2024/02/15 16:33:10;;;;;;;1999.90;999.90;;;;;;;14.83;98.92;101041.88;10142027;29;20083;-66
2024/02/15 16:38:13;;;;;;;1999.90;999.90;;;;;;;14.71;98.25;101039.28;10140136;29;20408;-66
2024/02/15 16:43:16;;;;;;;1999.90;999.90;;;;;;;14.61;100.00;101044.38;10141747;29;20051;-66
2024/02/15 16:48:19;;;;;;;1999.90;999.90;;;;;;;14.47;100.00;101037.38;10140411;29;20059;-65
2024/02/15 16:53:21;;;;;;;1999.90;999.90;;;;;;;14.31;100.00;101041.09;10139539;29;20489;-66
2024/02/15 16:58:24;;;;;;;1999.90;999.90;;;;;;;14.27;100.00;101039.63;10141225;29;20052;-66
2024/02/15 17:03:27;;;;;;;1999.90;999.90;;;;;;;14.07;100.00;101041.00;10139938;29;20083;-65
2024/02/15 17:08:29;;;;;;;1999.90;999.90;;;;;;;13.90;100.00;101036.88;10140504;29;20135;-65
2024/02/15 17:13:32;;;;;;;1999.90;999.90;;;;;;;13.93;100.00;101035.81;10139987;29;20044;-68
2024/02/15 17:18:37;;;;;;;1999.90;999.90;;;;;;;13.81;100.00;101034.03;10139906;29;20068;-67
2024/02/15 17:23:43;;;;;;;1999.90;999.90;;;;;;;13.70;100.00;101040.00;10140326;29;20057;-68
2024/02/15 17:28:45;;;;;;;1999.90;999.90;;;;;;;13.82;100.00;101046.22;10139900;29;20073;-68
2024/02/15 17:33:47;;;;;;;1999.90;999.90;;;;;;;13.64;100.00;101046.50;10139411;29;20056;-67
2024/02/15 17:38:50;;;;;;;1999.90;999.90;;;;;;;13.42;100.00;101052.34;10139681;29;20048;-68
2024/02/15 17:43:56;;;;;;;1999.90;999.90;;;;;;;13.53;100.00;101051.63;10138916;29;20044;-68
2024/02/15 17:49:00;;;;;;;1999.90;999.90;;;;;;;13.30;100.00;101042.59;10139241;29;20052;-67
2024/02/15 17:54:03;;;;;;;1999.90;999.90;;;;;;;13.18;100.00;101036.34;10137358;29;20471;-67
2024/02/15 17:59:07;;;;;;;1999.90;999.90;;;;;;;13.30;100.00;101040.81;10138915;29;20125;-67
2024/02/15 18:04:10;;;;;;;1999.90;999.90;;;;;;;13.43;100.00;101040.03;10138713;29;20044;-67
2024/02/15 18:09:12;;;;;;;1999.90;999.90;;;;;;;13.19;100.00;101038.03;10138090;29;20066;-68
2024/02/15 18:14:16;;;;;;;1999.90;999.90;;;;;;;13.31;100.00;101044.28;10137665;29;20100;-67
2024/02/15 18:19:19;;;;;;;1999.90;999.90;;;;;;;13.18;100.00;101041.63;10138183;29;20059;-68
2024/02/15 18:24:22;;;;;;;1999.90;999.90;;;;;;;12.97;100.00;101051.69;10138161;29;20052;-67
2024/02/15 18:29:24;;;;;;;1999.90;999.90;;;;;;;12.81;100.00;101044.78;10136673;29;20056;-68
2024/02/15 18:34:27;;;;;;;1999.90;999.90;;;;;;;12.71;100.00;101050.69;10137550;29;20052;-67
2024/02/15 18:39:30;;;;;;;1999.90;999.90;;;;;;;12.82;100.00;101046.47;10137084;29;20453;-67
2024/02/15 18:44:33;;;;;;;1999.90;999.90;;;;;;;12.66;100.00;101029.13;10137235;29;20048;-68
2024/02/15 18:49:37;;;;;;;1999.90;999.90;;;;;;;12.95;100.00;101025.50;10137164;29;20061;-67
2024/02/15 18:54:47;;;;;;;1999.90;999.90;;;;;;;12.72;100.00;101023.50;10137002;29;20059;-68
2024/02/15 18:59:50;;;;;;;1999.90;999.90;;;;;;;12.52;100.00;101020.31;10136182;29;20136;-67
2024/02/15 19:04:53;;;;;;;1999.90;999.90;;;;;;;12.71;100.00;101001.66;10135630;29;20080;-70
2024/02/15 19:09:55;;;;;;;1999.90;999.90;;;;;;;12.65;100.00;101004.66;10134811;29;20559;-70
2024/02/15 19:15:00;;;;;;;1999.90;999.90;;;;;;;12.57;100.00;101006.91;10135884;29;20136;-70
2024/02/15 19:20:03;;;;;;;1999.90;999.90;;;;;;;12.64;100.00;100990.69;10136452;29;20087;-70
2024/02/15 19:25:06;;;;;;;1999.90;999.90;;;;;;;12.83;100.00;101000.84;10135842;29;20496;-70
2024/02/15 19:30:10;;;;;;;1999.90;999.90;;;;;;;12.73;100.00;101002.38;10134515;29;20518;-70
2024/02/15 19:35:13;;;;;;;1999.90;999.90;;;;;;;12.53;100.00;100992.28;10135675;29;20048;-70
2024/02/15 19:40:19;;;;;;;1999.90;999.90;;;;;;;12.62;100.00;100996.97;10136059;29;20063;-70
2024/02/15 19:45:22;;;;;;;1999.90;999.90;;;;;;;12.73;100.00;101004.19;10134893;29;20044;-70
2024/02/15 19:50:25;;;;;;;1999.90;999.90;;;;;;;12.42;100.00;100998.19;10139534;29;20052;-70
2024/02/15 19:55:30;;;;;;;1999.90;999.90;;;;;;;12.43;100.00;100990.22;10143545;29;20080;-70
2024/02/15 20:00:33;;;;;;;1999.90;999.90;;;;;;;12.78;100.00;100991.59;10143357;29;20048;-70
2024/02/15 20:05:35;;;;;;;1999.90;999.90;;;;;;;12.75;100.00;100981.28;10143218;29;20100;-70
2024/02/15 20:10:38;;;;;;;1999.90;999.90;;;;;;;12.55;100.00;100982.53;10142172;29;20060;-70
2024/02/15 20:15:40;;;;;;;1999.90;999.90;;;;;;;12.34;100.00;100982.06;10142127;29;20480;-69
2024/02/15 20:20:43;;;;;;;1999.90;999.90;;;;;;;12.36;100.00;100965.31;10142598;29;20108;-69
2024/02/15 20:25:45;;;;;;;1999.90;999.90;;;;;;;12.40;100.00;100956.28;10142464;29;20092;-69
2024/02/15 20:30:48;;;;;;;1999.90;999.90;;;;;;;12.31;100.00;100953.41;10142243;29;20067;-69
2024/02/15 20:35:50;;;;;;;1999.90;999.90;;;;;;;12.34;100.00;100945.31;10140898;29;20087;-69
2024/02/15 20:40:53;;;;;;;1999.90;999.90;;;;;;;12.24;100.00;100935.41;10141273;29;20124;-67
2024/02/15 20:45:56;;;;;;;1999.90;999.90;;;;;;;12.03;100.00;100937.56;10141747;29;20057;-67
2024/02/15 20:51:00;;;;;;;1999.90;999.90;;;;;;;12.40;100.00;100943.16;10140926;29;20110;-67
2024/02/15 20:56:03;;;;;;;1999.90;999.90;;;;;;;12.33;100.00;100933.16;10141532;29;20049;-67
2024/02/15 21:01:05;;;;;;;1999.90;999.90;;;;;;;11.95;100.00;100916.19;10139950;29;20060;-67
2024/02/15 21:06:10;;;;;;;1999.90;999.90;;;;;;;11.97;100.00;100924.84;10141149;29;20056;-67
2024/02/15 21:11:14;;;;;;;1999.90;999.90;;;;;;;12.03;100.00;100913.09;10139959;29;20088;-67
2024/02/15 21:16:18;;;;;;;1999.90;999.90;;;;;;;11.93;100.00;100920.69;10139680;29;20059;-67
2024/02/15 21:21:21;;;;;;;1999.90;999.90;;;;;;;11.77;100.00;100902.41;10139273;29;20132;-67
2024/02/15 21:26:24;;;;;;;1999.90;999.90;;;;;;;11.75;100.00;100891.16;10139611;29;20056;-67
2024/02/15 21:31:27;;;;;;;1999.90;999.90;;;;;;;11.80;100.00;100904.84;10139940;29;20109;-67
2024/02/15 21:36:29;;;;;;;1999.90;999.90;;;;;;;11.71;100.00;100910.63;10138734;29;20053;-67
2024/02/15 21:41:32;;;;;;;1999.90;999.90;;;;;;;11.83;100.00;100898.56;10139863;29;20056;-67
2024/02/15 21:46:34;;;;;;;1999.90;999.90;;;;;;;11.77;100.00;100907.66;10139478;29;20052;-67
2024/02/15 21:51:37;;;;;;;1999.90;999.90;;;;;;;11.93;100.00;100904.13;10139385;29;20048;-67
2024/02/15 21:56:39;;;;;;;1999.90;999.90;;;;;;;11.53;100.00;100913.44;10138548;29;20053;-67
2024/02/15 22:01:43;;;;;;;1999.90;999.90;;;;;;;11.59;100.00;100912.22;10138273;29;20545;-67
2024/02/15 22:06:49;;;;;;;1999.90;999.90;;;;;;;11.66;100.00;100910.91;10138067;29;20390;-67
2024/02/15 22:11:51;;;;;;;1999.90;999.90;;;;;;;11.28;100.00;100902.69;10137187;29;20052;-67
2024/02/15 22:16:54;;;;;;;1999.90;999.90;;;;;;;11.47;100.00;100899.84;10121542;29;20104;-67
2024/02/15 22:21:57;;;;;;;1999.90;999.90;;;;;;;11.57;100.00;100898.34;10138193;29;20048;-67
2024/02/15 22:26:59;;;;;;;1999.90;999.90;;;;;;;11.43;100.00;100903.56;10137974;29;20061;-67
2024/02/15 22:32:02;;;;;;;1999.90;999.90;;;;;;;11.36;100.00;100899.63;10137092;29;20053;-67